createdAt,value
2016-11-18T00:00:20.320Z,25.2
2016-11-18T00:01:00.978Z,25.21
2016-11-18T00:01:41.667Z,25.17
2016-11-18T00:02:22.352Z,25.18
2016-11-18T00:03:03.059Z,25.1
2016-11-18T00:03:43.754Z,25.21
2016-11-18T00:04:24.432Z,25.2
2016-11-18T00:05:05.158Z,25.2
2016-11-18T00:05:45.849Z,25.25
2016-11-18T00:06:26.560Z,25.06
2016-11-18T00:07:07.266Z,25.17
2016-11-18T00:07:47.934Z,25.21
2016-11-18T00:08:28.689Z,25.15
2016-11-18T00:09:09.365Z,25.15
2016-11-18T00:09:50.047Z,25.24
2016-11-18T00:10:30.765Z,25.14
2016-11-18T00:11:11.448Z,25.15
2016-11-18T00:11:52.123Z,25.13
2016-11-18T00:12:32.784Z,25.21
2016-11-18T00:13:13.456Z,25.15
2016-11-18T00:13:54.149Z,25.24
2016-11-18T00:14:34.851Z,25.1
2016-11-18T00:15:15.576Z,25.18
2016-11-18T00:15:56.260Z,25.18
2016-11-18T00:16:36.943Z,25.24
2016-11-18T00:17:17.621Z,25.18
2016-11-18T00:17:58.319Z,25.21
2016-11-18T00:18:39.060Z,25.17
2016-11-18T00:19:19.713Z,25.2
2016-11-18T00:20:00.417Z,25.18
2016-11-18T00:20:41.131Z,25.18
2016-11-18T00:21:21.783Z,25.14
2016-11-18T00:22:02.493Z,25.23
2016-11-18T00:22:43.179Z,25.15
2016-11-18T00:23:23.858Z,25.24
2016-11-18T00:24:04.561Z,25.24
2016-11-18T00:24:45.248Z,25.23
2016-11-18T00:25:25.897Z,25.2
2016-11-18T00:26:06.584Z,25.14
2016-11-18T00:26:47.245Z,25.14
2016-11-18T00:27:27.953Z,25.15
2016-11-18T00:28:08.632Z,25.13
2016-11-18T00:28:49.310Z,25.1
2016-11-18T00:29:30.006Z,25.15
2016-11-18T00:30:10.704Z,25.2
2016-11-18T00:30:51.369Z,25.18
2016-11-18T00:31:32.069Z,25.15
2016-11-18T00:32:12.749Z,25.14
2016-11-18T00:32:53.583Z,25.18
2016-11-18T00:33:34.263Z,25.17
2016-11-18T00:34:14.977Z,25.09
2016-11-18T00:34:55.620Z,25.18
2016-11-18T00:35:36.353Z,25.1
2016-11-18T00:36:17.052Z,25.18
2016-11-18T00:36:57.740Z,25.14
2016-11-18T00:37:38.420Z,25.14
2016-11-18T00:38:19.104Z,25.15
2016-11-18T00:38:59.793Z,25.15
2016-11-18T00:39:40.434Z,25.17
2016-11-18T00:40:21.125Z,25.21
2016-11-18T00:41:01.844Z,25.17
2016-11-18T00:41:42.550Z,25.18
2016-11-18T00:42:23.201Z,25.15
2016-11-18T00:43:03.888Z,25.15
2016-11-18T00:43:44.650Z,25.14
2016-11-18T00:44:25.332Z,25.15
2016-11-18T00:45:06.021Z,25.14
2016-11-18T00:45:46.712Z,25.1
2016-11-18T00:46:27.353Z,25.17
2016-11-18T00:47:08.019Z,25.17
2016-11-18T00:47:48.737Z,25.14
2016-11-18T00:48:29.406Z,25.17
2016-11-18T00:49:10.113Z,25.15
2016-11-18T00:49:50.803Z,25.1
2016-11-18T00:50:31.537Z,25.2
2016-11-18T00:51:12.227Z,25.08
2016-11-18T00:51:52.899Z,25.18
2016-11-18T00:52:33.605Z,25.15
2016-11-18T00:53:14.270Z,25.13
2016-11-18T00:53:54.940Z,25.09
2016-11-18T00:54:35.600Z,25.2
2016-11-18T00:55:16.309Z,25.14
2016-11-18T00:55:57.001Z,25.1
2016-11-18T00:56:37.724Z,25.08
2016-11-18T00:57:18.404Z,25.2
2016-11-18T00:57:59.084Z,25.09
2016-11-18T00:58:39.754Z,25.2
2016-11-18T00:59:20.429Z,25.13
2016-11-18T01:00:01.123Z,25.09
2016-11-18T01:00:41.823Z,25.18
2016-11-18T01:01:22.505Z,25.18
2016-11-18T01:02:03.201Z,25.21
2016-11-18T01:02:43.899Z,25.2
2016-11-18T01:03:24.552Z,25.17
2016-11-18T01:04:05.232Z,25.06
2016-11-18T01:04:45.918Z,25.17
2016-11-18T01:05:26.577Z,25.18
2016-11-18T01:06:07.267Z,25.2
2016-11-18T01:06:47.947Z,25.14
2016-11-18T01:07:28.640Z,25.13
2016-11-18T01:08:09.343Z,25.06
2016-11-18T01:08:50.020Z,25.08
2016-11-18T01:09:30.672Z,25.08
2016-11-18T01:10:11.361Z,25.06
2016-11-18T01:10:52.015Z,25.13
2016-11-18T01:11:32.750Z,25.06
2016-11-18T01:12:13.468Z,25.2
2016-11-18T01:12:54.143Z,25.15
2016-11-18T01:13:34.815Z,25.13
2016-11-18T01:14:15.520Z,25.14
2016-11-18T01:14:56.149Z,25.13
2016-11-18T01:15:36.847Z,25.13
2016-11-18T01:16:17.505Z,25.13
2016-11-18T01:16:58.190Z,25.1
2016-11-18T01:17:38.863Z,25.09
2016-11-18T01:18:19.540Z,25.08
2016-11-18T01:19:00.234Z,25.09
2016-11-18T01:19:40.922Z,25.1
2016-11-18T01:20:21.577Z,25.13
2016-11-18T01:21:02.299Z,25.13
2016-11-18T01:21:42.979Z,25.15
2016-11-18T01:22:23.656Z,25.1
2016-11-18T01:23:04.355Z,25.14
2016-11-18T01:23:44.999Z,25.06
2016-11-18T01:24:25.676Z,25.15
2016-11-18T01:25:06.357Z,25.02
2016-11-18T01:25:47.042Z,25.13
2016-11-18T01:26:27.748Z,25.06
2016-11-18T01:27:08.450Z,25.1
2016-11-18T01:27:49.189Z,25.05
2016-11-18T01:28:29.883Z,25.08
2016-11-18T01:29:10.579Z,25.08
2016-11-18T01:29:51.288Z,25.08
2016-11-18T01:30:31.970Z,25.06
2016-11-18T01:31:12.671Z,25.08
2016-11-18T01:31:53.385Z,25.09
2016-11-18T01:32:34.069Z,25.15
2016-11-18T01:33:14.767Z,25.09
2016-11-18T01:33:55.489Z,25.08
2016-11-18T01:34:36.189Z,25.1
2016-11-18T01:35:16.915Z,25.09
2016-11-18T01:35:57.582Z,25
2016-11-18T01:36:38.221Z,25.08
2016-11-18T01:37:18.889Z,25.03
2016-11-18T01:37:59.620Z,25.06
2016-11-18T01:38:40.335Z,25.08
2016-11-18T01:39:21.014Z,25.02
2016-11-18T01:40:01.702Z,25.05
2016-11-18T01:40:42.397Z,25.1
2016-11-18T01:41:23.102Z,25.05
2016-11-18T01:42:03.778Z,25.06
2016-11-18T01:42:44.463Z,25.03
2016-11-18T01:43:25.178Z,25.02
2016-11-18T01:44:05.861Z,25.03
2016-11-18T01:44:46.541Z,25.03
2016-11-18T01:45:27.210Z,25.05
2016-11-18T01:46:07.929Z,25.03
2016-11-18T01:46:48.542Z,25.03
2016-11-18T01:47:29.226Z,25.06
2016-11-18T01:48:09.933Z,25.09
2016-11-18T01:48:50.603Z,25.1
2016-11-18T01:49:31.276Z,25.02
2016-11-18T01:50:11.987Z,25.14
2016-11-18T01:50:52.668Z,25.05
2016-11-18T01:51:33.364Z,25
2016-11-18T01:52:14.024Z,25.13
2016-11-18T01:52:54.689Z,25.03
2016-11-18T01:53:35.371Z,25.08
2016-11-18T01:54:16.016Z,25.1
2016-11-18T01:54:56.711Z,25.05
2016-11-18T01:55:37.418Z,25.13
2016-11-18T01:56:18.083Z,25.1
2016-11-18T01:56:58.767Z,25.05
2016-11-18T01:57:39.457Z,25
2016-11-18T01:58:20.139Z,25.06
2016-11-18T01:59:00.799Z,25.08
2016-11-18T01:59:41.485Z,25.02
2016-11-18T02:00:22.171Z,25.05
2016-11-18T02:01:02.810Z,25.14
2016-11-18T02:01:43.512Z,25.08
2016-11-18T02:02:24.200Z,25.02
2016-11-18T02:03:04.872Z,25.06
2016-11-18T02:03:45.560Z,25.05
2016-11-18T02:04:26.202Z,25.05
2016-11-18T02:05:06.862Z,25.09
2016-11-18T02:05:47.575Z,25.03
2016-11-18T02:06:28.254Z,24.98
2016-11-18T02:07:08.930Z,25.05
2016-11-18T02:07:49.604Z,25.05
2016-11-18T02:08:30.303Z,25.03
2016-11-18T02:09:11.001Z,24.96
2016-11-18T02:09:51.670Z,25
2016-11-18T02:10:32.376Z,25.1
2016-11-18T02:11:13.045Z,24.99
2016-11-18T02:11:53.692Z,25.13
2016-11-18T02:12:34.371Z,25.05
2016-11-18T02:13:15.063Z,25
2016-11-18T02:13:55.729Z,25.05
2016-11-18T02:14:36.400Z,25.02
2016-11-18T02:15:17.078Z,25
2016-11-18T02:15:57.756Z,24.95
2016-11-18T02:16:38.460Z,25
2016-11-18T02:17:19.159Z,24.91
2016-11-18T02:17:59.881Z,25.09
2016-11-18T02:18:40.615Z,25.02
2016-11-18T02:19:21.288Z,25.02
2016-11-18T02:20:01.975Z,25.05
2016-11-18T02:20:42.657Z,25
2016-11-18T02:21:23.342Z,25
2016-11-18T02:22:04.056Z,25.05
2016-11-18T02:22:44.749Z,24.98
2016-11-18T02:23:25.378Z,25.05
2016-11-18T02:24:06.116Z,25.06
2016-11-18T02:24:46.748Z,25
2016-11-18T02:25:27.416Z,24.96
2016-11-18T02:26:08.117Z,25.02
2016-11-18T02:26:48.794Z,25
2016-11-18T02:27:29.492Z,25.05
2016-11-18T02:28:10.193Z,24.98
2016-11-18T02:28:50.825Z,24.98
2016-11-18T02:29:31.546Z,25
2016-11-18T02:30:12.286Z,25
2016-11-18T02:30:53.008Z,25.06
2016-11-18T02:31:33.697Z,25.05
2016-11-18T02:32:14.368Z,25
2016-11-18T02:32:55.063Z,24.98
2016-11-18T02:33:35.715Z,24.98
2016-11-18T02:34:16.381Z,24.96
2016-11-18T02:34:57.085Z,24.98
2016-11-18T02:35:37.781Z,24.98
2016-11-18T02:36:18.514Z,24.96
2016-11-18T02:36:59.219Z,24.99
2016-11-18T02:37:39.911Z,24.95
2016-11-18T02:38:20.639Z,24.93
2016-11-18T02:39:01.311Z,24.91
2016-11-18T02:39:42.058Z,24.91
2016-11-18T02:40:22.685Z,24.93
2016-11-18T02:41:03.369Z,24.93
2016-11-18T02:41:44.074Z,24.93
2016-11-18T02:42:24.781Z,24.93
2016-11-18T02:43:05.473Z,24.93
2016-11-18T02:43:46.171Z,24.96
2016-11-18T02:44:26.857Z,24.98
2016-11-18T02:45:07.527Z,24.96
2016-11-18T02:45:48.235Z,25
2016-11-18T02:46:28.878Z,24.95
2016-11-18T02:47:09.583Z,24.95
2016-11-18T02:47:50.301Z,24.93
2016-11-18T02:48:30.983Z,24.93
2016-11-18T02:49:11.722Z,24.95
2016-11-18T02:49:52.398Z,24.93
2016-11-18T02:50:33.047Z,24.93
2016-11-18T02:51:13.742Z,24.88
2016-11-18T02:51:54.399Z,24.9
2016-11-18T02:52:35.097Z,24.93
2016-11-18T02:53:15.787Z,24.91
2016-11-18T02:53:56.485Z,24.88
2016-11-18T02:54:37.198Z,24.91
2016-11-18T02:55:17.872Z,24.9
2016-11-18T02:55:58.490Z,24.98
2016-11-18T02:56:39.244Z,24.87
2016-11-18T02:57:19.932Z,24.93
2016-11-18T02:58:00.596Z,24.96
2016-11-18T02:58:41.284Z,24.9
2016-11-18T02:59:21.948Z,24.91
2016-11-18T03:00:02.592Z,24.9
2016-11-18T03:00:43.260Z,24.9
2016-11-18T03:01:23.949Z,24.9
2016-11-18T03:02:04.639Z,24.91
2016-11-18T03:02:45.284Z,24.83
2016-11-18T03:03:25.975Z,24.9
2016-11-18T03:04:06.698Z,24.88
2016-11-18T03:04:47.340Z,24.9
2016-11-18T03:05:28.092Z,24.9
2016-11-18T03:06:08.716Z,24.9
2016-11-18T03:06:49.427Z,24.98
2016-11-18T03:07:30.113Z,24.9
2016-11-18T03:08:10.785Z,24.88
2016-11-18T03:08:51.428Z,24.87
2016-11-18T03:09:32.133Z,24.9
2016-11-18T03:10:12.825Z,24.88
2016-11-18T03:10:53.519Z,24.91
2016-11-18T03:11:34.224Z,24.9
2016-11-18T03:12:14.896Z,24.85
2016-11-18T03:12:55.607Z,24.87
2016-11-18T03:13:36.306Z,24.88
2016-11-18T03:14:17.048Z,24.91
2016-11-18T03:14:57.752Z,24.9
2016-11-18T03:15:38.424Z,24.91
2016-11-18T03:16:19.072Z,24.9
2016-11-18T03:16:59.784Z,24.93
2016-11-18T03:17:40.502Z,24.9
2016-11-18T03:18:21.177Z,24.85
2016-11-18T03:19:01.811Z,24.93
2016-11-18T03:19:42.476Z,24.88
2016-11-18T03:20:23.182Z,24.88
2016-11-18T03:21:03.862Z,24.91
2016-11-18T03:21:44.545Z,24.88
2016-11-18T03:22:25.197Z,24.9
2016-11-18T03:23:05.896Z,24.91
2016-11-18T03:23:46.583Z,24.87
2016-11-18T03:24:27.257Z,24.91
2016-11-18T03:25:07.974Z,24.95
2016-11-18T03:25:48.684Z,24.93
2016-11-18T03:26:29.347Z,24.98
2016-11-18T03:27:10.055Z,24.9
2016-11-18T03:27:50.771Z,24.87
2016-11-18T03:28:31.496Z,24.93
2016-11-18T03:29:12.194Z,24.85
2016-11-18T03:29:52.897Z,24.91
2016-11-18T03:30:33.567Z,24.96
2016-11-18T03:31:14.267Z,24.9
2016-11-18T03:31:54.957Z,24.88
2016-11-18T03:32:35.677Z,24.93
2016-11-18T03:33:16.320Z,24.88
2016-11-18T03:33:57.973Z,24.9
2016-11-18T03:34:38.673Z,24.93
2016-11-18T03:35:19.307Z,24.91
2016-11-18T03:36:00.034Z,24.91
2016-11-18T03:36:40.707Z,24.9
2016-11-18T03:37:21.403Z,24.87
2016-11-18T03:38:02.072Z,24.91
2016-11-18T03:38:42.762Z,24.9
2016-11-18T03:39:23.404Z,24.84
2016-11-18T03:40:04.075Z,24.88
2016-11-18T03:40:44.782Z,24.9
2016-11-18T03:41:25.494Z,24.93
2016-11-18T03:42:06.162Z,24.91
2016-11-18T03:42:46.875Z,24.9
2016-11-18T03:43:27.550Z,24.85
2016-11-18T03:44:08.210Z,24.95
2016-11-18T03:44:48.864Z,24.93
2016-11-18T03:45:29.568Z,24.91
2016-11-18T03:46:10.280Z,24.88
2016-11-18T03:46:50.949Z,24.9
2016-11-18T03:47:31.645Z,24.84
2016-11-18T03:48:12.361Z,24.91
2016-11-18T03:48:53.043Z,24.88
2016-11-18T03:49:33.695Z,24.87
2016-11-18T03:50:14.437Z,24.91
2016-11-18T03:50:55.115Z,24.85
2016-11-18T03:51:35.795Z,24.9
2016-11-18T03:52:16.473Z,24.9
2016-11-18T03:52:57.203Z,24.84
2016-11-18T03:53:37.868Z,24.81
2016-11-18T03:54:18.558Z,24.81
2016-11-18T03:54:59.256Z,24.93
2016-11-18T03:55:39.895Z,24.88
2016-11-18T03:56:20.606Z,24.91
2016-11-18T03:57:01.275Z,24.9
2016-11-18T03:57:41.932Z,24.87
2016-11-18T03:58:22.620Z,24.91
2016-11-18T03:59:03.296Z,24.88
2016-11-18T03:59:43.943Z,24.91
2016-11-18T04:00:24.582Z,24.9
2016-11-18T04:01:05.274Z,24.78
2016-11-18T04:01:45.956Z,24.93
2016-11-18T04:02:26.597Z,24.93
2016-11-18T04:03:07.222Z,24.9
2016-11-18T04:03:47.959Z,24.83
2016-11-18T04:04:28.636Z,24.87
2016-11-18T04:05:09.326Z,24.93
2016-11-18T04:05:50.012Z,24.8
2016-11-18T04:06:30.691Z,24.87
2016-11-18T04:07:11.397Z,24.83
2016-11-18T04:07:52.099Z,24.83
2016-11-18T04:08:32.799Z,24.87
2016-11-18T04:09:13.440Z,24.87
2016-11-18T04:09:54.163Z,24.88
2016-11-18T04:10:34.858Z,24.91
2016-11-18T04:11:15.519Z,24.81
2016-11-18T04:11:56.185Z,24.84
2016-11-18T04:12:36.916Z,24.81
2016-11-18T04:13:17.626Z,24.91
2016-11-18T04:13:58.329Z,24.88
2016-11-18T04:14:39.034Z,24.84
2016-11-18T04:15:19.738Z,24.91
2016-11-18T04:16:00.478Z,24.9
2016-11-18T04:16:41.183Z,24.91
2016-11-18T04:17:21.836Z,24.85
2016-11-18T04:18:02.533Z,24.87
2016-11-18T04:18:43.201Z,24.8
2016-11-18T04:19:23.866Z,24.87
2016-11-18T04:20:04.537Z,24.78
2016-11-18T04:20:45.227Z,24.73
2016-11-18T04:21:25.912Z,24.77
2016-11-18T04:22:06.626Z,24.9
2016-11-18T04:22:47.290Z,24.78
2016-11-18T04:23:28.017Z,24.87
2016-11-18T04:24:08.687Z,24.87
2016-11-18T04:24:49.406Z,24.88
2016-11-18T04:25:30.150Z,24.73
2016-11-18T04:26:10.860Z,24.76
2016-11-18T04:26:51.518Z,24.9
2016-11-18T04:27:32.158Z,24.77
2016-11-18T04:28:12.824Z,24.73
2016-11-18T04:28:53.515Z,24.83
2016-11-18T04:29:34.218Z,24.88
2016-11-18T04:30:14.871Z,24.88
2016-11-18T04:30:55.525Z,24.76
2016-11-18T04:31:36.221Z,24.78
2016-11-18T04:32:16.887Z,24.88
2016-11-18T04:32:57.591Z,24.73
2016-11-18T04:33:38.256Z,24.73
2016-11-18T04:34:18.989Z,24.73
2016-11-18T04:34:59.699Z,24.85
2016-11-18T04:35:40.337Z,24.83
2016-11-18T04:36:21.063Z,24.87
2016-11-18T04:37:01.739Z,24.78
2016-11-18T04:37:42.388Z,24.77
2016-11-18T04:38:23.112Z,24.73
2016-11-18T04:39:03.837Z,24.87
2016-11-18T04:39:44.498Z,24.77
2016-11-18T04:40:25.220Z,24.76
2016-11-18T04:41:05.931Z,24.76
2016-11-18T04:41:46.652Z,24.91
2016-11-18T04:44:01.943Z,24.88
2016-11-18T04:44:42.633Z,24.77
2016-11-18T04:45:23.307Z,24.83
2016-11-18T04:46:04.020Z,24.77
2016-11-18T04:46:44.666Z,24.77
2016-11-18T04:47:25.398Z,24.78
2016-11-18T04:48:06.065Z,24.76
2016-11-18T04:48:46.771Z,24.73
2016-11-18T04:49:27.457Z,24.84
2016-11-18T04:50:08.132Z,24.73
2016-11-18T04:50:48.822Z,24.76
2016-11-18T04:51:29.550Z,24.73
2016-11-18T04:52:10.215Z,24.76
2016-11-18T04:52:50.908Z,24.77
2016-11-18T04:53:31.641Z,24.76
2016-11-18T04:54:12.334Z,24.76
2016-11-18T04:54:52.994Z,24.85
2016-11-18T04:55:33.735Z,24.78
2016-11-18T04:56:14.426Z,24.71
2016-11-18T04:56:55.072Z,24.77
2016-11-18T04:57:35.767Z,24.76
2016-11-18T04:58:16.427Z,24.78
2016-11-18T04:58:57.111Z,24.81
2016-11-18T04:59:37.807Z,24.77
2016-11-18T05:00:18.498Z,24.81
2016-11-18T05:00:59.158Z,24.71
2016-11-18T05:01:39.858Z,24.77
2016-11-18T05:02:20.514Z,24.76
2016-11-18T05:03:01.195Z,24.8
2016-11-18T05:03:41.915Z,24.81
2016-11-18T05:04:22.572Z,24.8
2016-11-18T05:05:03.221Z,24.76
2016-11-18T05:05:43.903Z,24.76
2016-11-18T05:06:24.608Z,24.77
2016-11-18T05:07:05.270Z,24.8
2016-11-18T05:07:45.921Z,24.8
2016-11-18T05:08:26.586Z,24.76
2016-11-18T05:09:07.305Z,24.81
2016-11-18T05:09:47.986Z,24.76
2016-11-18T05:10:28.664Z,24.77
2016-11-18T05:11:09.351Z,24.8
2016-11-18T05:11:50.001Z,24.78
2016-11-18T05:12:30.698Z,24.8
2016-11-18T05:13:11.374Z,24.8
2016-11-18T05:13:52.020Z,24.77
2016-11-18T05:14:32.702Z,24.78
2016-11-18T05:15:13.381Z,24.77
2016-11-18T05:15:54.057Z,24.78
2016-11-18T05:16:34.730Z,24.77
2016-11-18T05:17:15.395Z,24.77
2016-11-18T05:17:56.049Z,24.83
2016-11-18T05:18:36.705Z,24.76
2016-11-18T05:19:17.359Z,24.8
2016-11-18T05:19:58.091Z,24.78
2016-11-18T05:20:38.740Z,24.8
2016-11-18T05:21:19.444Z,24.78
2016-11-18T05:22:00.111Z,24.76
2016-11-18T05:22:40.832Z,24.83
2016-11-18T05:23:21.496Z,24.81
2016-11-18T05:24:02.168Z,24.81
2016-11-18T05:24:42.881Z,24.76
2016-11-18T05:25:23.570Z,24.71
2016-11-18T05:26:04.220Z,24.73
2016-11-18T05:26:44.844Z,24.77
2016-11-18T05:27:25.568Z,24.71
2016-11-18T05:28:06.263Z,24.78
2016-11-18T05:28:46.965Z,24.77
2016-11-18T05:29:27.667Z,24.78
2016-11-18T05:30:08.375Z,24.76
2016-11-18T05:30:49.105Z,24.73
2016-11-18T05:31:29.796Z,24.77
2016-11-18T05:32:10.504Z,24.68
2016-11-18T05:32:51.149Z,24.69
2016-11-18T05:33:31.819Z,24.76
2016-11-18T05:34:12.490Z,24.77
2016-11-18T05:34:53.122Z,24.81
2016-11-18T05:35:33.801Z,24.78
2016-11-18T05:36:14.459Z,24.78
2016-11-18T05:36:55.146Z,24.83
2016-11-18T05:37:35.816Z,24.76
2016-11-18T05:38:16.492Z,24.83
2016-11-18T05:38:57.169Z,24.76
2016-11-18T05:39:37.809Z,24.76
2016-11-18T05:40:18.465Z,24.71
2016-11-18T05:40:59.104Z,24.71
2016-11-18T05:41:39.774Z,24.77
2016-11-18T05:42:20.456Z,24.76
2016-11-18T05:43:01.170Z,24.8
2016-11-18T05:43:41.860Z,24.76
2016-11-18T05:44:22.566Z,24.81
2016-11-18T05:45:03.276Z,24.81
2016-11-18T05:45:43.924Z,24.78
2016-11-18T05:46:24.559Z,24.77
2016-11-18T05:47:05.252Z,24.78
2016-11-18T05:47:45.921Z,24.71
2016-11-18T05:48:26.587Z,24.69
2016-11-18T05:49:07.247Z,24.77
2016-11-18T05:49:47.928Z,24.68
2016-11-18T05:50:28.597Z,24.76
2016-11-18T05:51:09.240Z,24.77
2016-11-18T05:51:49.949Z,24.73
2016-11-18T05:52:30.651Z,24.61
2016-11-18T05:53:11.304Z,24.76
2016-11-18T05:53:52.005Z,24.77
2016-11-18T05:54:32.718Z,24.69
2016-11-18T05:55:13.420Z,24.77
2016-11-18T05:55:54.026Z,24.8
2016-11-18T05:56:35.605Z,24.62
2016-11-18T05:57:16.267Z,24.78
2016-11-18T05:57:56.996Z,24.8
2016-11-18T05:58:37.654Z,24.69
2016-11-18T06:01:58.367Z,24.8
2016-11-18T06:02:39.048Z,24.62
2016-11-18T06:03:19.701Z,24.76
2016-11-18T06:04:00.400Z,24.67
2016-11-18T06:04:41.121Z,24.78
2016-11-18T06:06:29.222Z,24.76
2016-11-18T06:07:10.109Z,24.62
2016-11-18T06:07:50.891Z,24.71
2016-11-18T06:08:31.677Z,24.73
2016-11-18T06:09:12.429Z,24.78
2016-11-18T06:09:53.195Z,24.76
2016-11-18T06:10:33.971Z,24.73
2016-11-18T06:11:14.739Z,24.64
2016-11-18T06:11:55.520Z,24.61
2016-11-18T06:12:36.294Z,24.71
2016-11-18T06:13:17.045Z,24.71
2016-11-18T06:13:57.802Z,24.8
2016-11-18T06:14:38.599Z,24.67
2016-11-18T06:15:19.309Z,24.76
2016-11-18T06:16:00.064Z,24.73
2016-11-18T06:16:40.727Z,24.76
2016-11-18T06:17:21.424Z,24.62
2016-11-18T06:18:02.079Z,24.76
2016-11-18T06:18:42.771Z,24.76
2016-11-18T06:19:23.418Z,24.76
2016-11-18T06:20:04.119Z,24.76
2016-11-18T06:20:44.783Z,24.73
2016-11-18T06:21:25.431Z,24.8
2016-11-18T06:22:06.060Z,24.67
2016-11-18T06:22:46.738Z,24.71
2016-11-18T06:23:27.424Z,24.8
2016-11-18T06:24:08.086Z,24.69
2016-11-18T06:24:48.728Z,24.76
2016-11-18T06:25:29.418Z,24.64
2016-11-18T06:26:10.123Z,24.61
2016-11-18T06:26:50.807Z,24.76
2016-11-18T06:27:31.517Z,24.62
2016-11-18T06:28:12.177Z,24.69
2016-11-18T06:28:52.834Z,24.65
2016-11-18T06:29:33.503Z,24.77
2016-11-18T06:30:14.174Z,24.69
2016-11-18T06:30:54.794Z,24.77
2016-11-18T06:31:35.477Z,24.71
2016-11-18T06:32:16.205Z,24.71
2016-11-18T06:32:56.892Z,24.76
2016-11-18T06:33:37.629Z,24.77
2016-11-18T06:34:18.325Z,24.71
2016-11-18T06:34:58.992Z,24.68
2016-11-18T06:35:39.655Z,24.65
2016-11-18T06:36:20.306Z,24.76
2016-11-18T06:37:00.987Z,24.73
2016-11-18T06:37:41.639Z,24.62
2016-11-18T06:38:22.295Z,24.76
2016-11-18T06:39:02.962Z,24.71
2016-11-18T06:39:43.661Z,24.69
2016-11-18T06:40:24.368Z,24.8
2016-11-18T06:41:05.024Z,24.69
2016-11-18T06:41:45.689Z,24.78
2016-11-18T06:42:26.364Z,24.73
2016-11-18T06:43:07.071Z,24.69
2016-11-18T06:43:47.726Z,24.76
2016-11-18T06:44:28.410Z,24.77
2016-11-18T06:45:09.141Z,24.65
2016-11-18T06:45:49.826Z,24.76
2016-11-18T06:46:30.473Z,24.71
2016-11-18T06:47:11.245Z,24.65
2016-11-18T06:47:51.927Z,24.73
2016-11-18T06:48:32.646Z,24.58
2016-11-18T06:49:13.295Z,24.77
2016-11-18T06:49:53.984Z,24.71
2016-11-18T06:50:34.635Z,24.76
2016-11-18T06:51:15.312Z,24.62
2016-11-18T06:51:56.026Z,24.71
2016-11-18T06:52:36.677Z,24.73
2016-11-18T06:53:17.410Z,24.71
2016-11-18T06:53:58.121Z,24.78
2016-11-18T06:54:38.839Z,24.81
2016-11-18T06:55:19.471Z,24.73
2016-11-18T06:56:00.170Z,24.76
2016-11-18T06:56:40.867Z,24.71
2016-11-18T06:57:21.511Z,24.68
2016-11-18T06:58:02.195Z,24.78
2016-11-18T06:58:42.870Z,24.78
2016-11-18T06:59:23.573Z,24.68
2016-11-18T07:00:04.213Z,24.8
2016-11-18T07:00:44.910Z,24.69
2016-11-18T07:01:25.583Z,24.69
2016-11-18T07:02:06.267Z,24.71
2016-11-18T07:02:46.964Z,24.73
2016-11-18T07:03:27.652Z,24.76
2016-11-18T07:04:08.344Z,24.71
2016-11-18T07:04:48.996Z,24.73
2016-11-18T07:05:29.640Z,24.76
2016-11-18T07:06:10.318Z,24.77
2016-11-18T07:06:50.995Z,24.77
2016-11-18T07:07:31.618Z,24.77
2016-11-18T07:08:12.266Z,24.81
2016-11-18T07:08:52.947Z,24.76
2016-11-18T07:09:33.646Z,24.76
2016-11-18T07:10:14.384Z,24.83
2016-11-18T07:10:55.100Z,24.77
2016-11-18T07:11:35.795Z,24.78
2016-11-18T07:12:16.469Z,24.81
2016-11-18T07:12:57.207Z,24.67
2016-11-18T07:13:37.884Z,24.76
2016-11-18T07:14:18.561Z,24.78
2016-11-18T07:14:59.207Z,24.78
2016-11-18T07:15:39.911Z,24.78
2016-11-18T07:16:20.614Z,24.8
2016-11-18T07:17:01.286Z,24.73
2016-11-18T07:17:42.014Z,24.88
2016-11-18T07:18:22.690Z,24.87
2016-11-18T07:19:03.380Z,24.9
2016-11-18T07:19:44.081Z,24.88
2016-11-18T07:20:24.754Z,24.91
2016-11-18T07:21:05.399Z,24.91
2016-11-18T07:21:46.867Z,24.95
2016-11-18T07:22:26.772Z,24.99
2016-11-18T07:23:07.547Z,24.99
2016-11-18T07:23:48.226Z,24.99
2016-11-18T07:24:28.868Z,25.06
2016-11-18T07:25:09.584Z,25.02
2016-11-18T07:25:50.255Z,25
2016-11-18T07:26:30.888Z,25.1
2016-11-18T07:27:11.614Z,25.03
2016-11-18T07:27:52.281Z,25.05
2016-11-18T07:28:32.950Z,25.06
2016-11-18T07:29:13.601Z,25.05
2016-11-18T07:29:54.286Z,25.06
2016-11-18T07:30:34.949Z,25.1
2016-11-18T07:31:15.672Z,25.13
2016-11-18T07:31:56.361Z,25.15
2016-11-18T07:32:37.029Z,25.2
2016-11-18T07:33:17.702Z,25.14
2016-11-18T07:33:58.375Z,25.14
2016-11-18T07:34:39.113Z,25.14
2016-11-18T07:35:19.804Z,25.1
2016-11-18T07:36:00.461Z,25.18
2016-11-18T07:36:41.147Z,25.2
2016-11-18T07:37:21.875Z,25.2
2016-11-18T07:38:02.587Z,25.18
2016-11-18T07:38:43.316Z,25.17
2016-11-18T07:39:23.979Z,25.25
2016-11-18T07:40:04.637Z,25.17
2016-11-18T07:40:45.359Z,25.2
2016-11-18T07:41:26.060Z,25.24
2016-11-18T07:42:06.730Z,25.21
2016-11-18T07:42:47.393Z,25.23
2016-11-18T07:43:28.147Z,25.17
2016-11-18T07:44:08.853Z,25.3
2016-11-18T07:44:49.487Z,25.21
2016-11-18T07:45:30.211Z,25.25
2016-11-18T07:46:11.006Z,25.21
2016-11-18T07:46:51.714Z,25.21
2016-11-18T07:47:32.391Z,25.23
2016-11-18T07:48:13.103Z,25.24
2016-11-18T07:48:53.888Z,25.25
2016-11-18T07:49:34.608Z,25.27
2016-11-18T07:50:15.280Z,25.33
2016-11-18T07:50:56.848Z,25.24
2016-11-18T07:51:37.567Z,25.25
2016-11-18T07:52:18.216Z,25.32
2016-11-18T07:52:58.963Z,25.38
2016-11-18T07:53:39.663Z,25.38
2016-11-18T07:54:20.405Z,25.4
2016-11-18T07:55:01.145Z,25.33
2016-11-18T07:55:41.830Z,25.25
2016-11-18T07:56:22.587Z,25.38
2016-11-18T07:57:03.268Z,25.36
2016-11-18T07:57:44.013Z,25.33
2016-11-18T07:58:24.759Z,25.39
2016-11-18T07:59:05.484Z,25.35
2016-11-18T07:59:46.184Z,25.33
2016-11-18T08:00:26.857Z,25.33
2016-11-18T08:01:07.534Z,25.33
2016-11-18T08:01:48.249Z,25.4
2016-11-18T08:02:28.968Z,25.36
2016-11-18T08:03:09.667Z,25.38
2016-11-18T08:03:50.413Z,25.39
2016-11-18T08:04:31.068Z,25.4
2016-11-18T08:05:11.788Z,25.35
2016-11-18T08:05:52.456Z,25.4
2016-11-18T08:06:33.155Z,25.43
2016-11-18T08:07:13.911Z,25.42
2016-11-18T08:07:54.659Z,25.47
2016-11-18T08:08:35.374Z,25.43
2016-11-18T08:09:15.993Z,25.52
2016-11-18T08:09:56.737Z,25.47
2016-11-18T08:10:37.399Z,25.43
2016-11-18T08:11:18.096Z,25.38
2016-11-18T08:11:58.792Z,25.51
2016-11-18T08:12:39.525Z,25.43
2016-11-18T08:13:20.205Z,25.55
2016-11-18T08:14:00.849Z,25.51
2016-11-18T08:14:41.522Z,25.5
2016-11-18T08:15:22.227Z,25.46
2016-11-18T08:16:02.876Z,25.47
2016-11-18T08:16:43.544Z,25.51
2016-11-18T08:17:24.229Z,25.51
2016-11-18T08:18:04.891Z,25.46
2016-11-18T08:18:45.592Z,25.5
2016-11-18T08:19:26.249Z,25.54
2016-11-18T08:20:07.606Z,25.46
2016-11-18T08:20:48.387Z,25.58
2016-11-18T08:21:29.053Z,25.57
2016-11-18T08:22:09.711Z,25.55
2016-11-18T08:22:50.434Z,25.58
2016-11-18T08:23:31.187Z,25.55
2016-11-18T08:24:12.804Z,25.57
2016-11-18T08:24:53.490Z,25.62
2016-11-18T08:25:34.160Z,25.6
2016-11-18T08:26:14.836Z,25.58
2016-11-18T08:26:55.634Z,25.61
2016-11-18T08:27:36.343Z,25.57
2016-11-18T08:28:17.116Z,25.57
2016-11-18T08:28:57.760Z,25.54
2016-11-18T08:29:39.223Z,25.57
2016-11-18T08:30:19.862Z,25.65
2016-11-18T08:31:00.555Z,25.61
2016-11-18T08:31:41.242Z,25.6
2016-11-18T08:32:21.911Z,25.61
2016-11-18T08:33:02.576Z,25.61
2016-11-18T08:33:43.245Z,25.62
2016-11-18T08:34:23.938Z,25.6
2016-11-18T08:35:04.631Z,25.64
2016-11-18T08:35:45.357Z,25.65
2016-11-18T08:36:26.045Z,25.62
2016-11-18T08:37:06.713Z,25.73
2016-11-18T08:37:47.362Z,25.65
2016-11-18T08:38:28.089Z,25.65
2016-11-18T08:39:08.783Z,25.73
2016-11-18T08:39:49.463Z,25.67
2016-11-18T08:40:30.229Z,25.72
2016-11-18T08:41:10.990Z,25.72
2016-11-18T08:41:51.702Z,25.69
2016-11-18T08:42:32.448Z,25.76
2016-11-18T08:43:13.126Z,25.76
2016-11-18T08:43:53.836Z,25.72
2016-11-18T08:44:34.528Z,25.77
2016-11-18T08:45:15.279Z,25.77
2016-11-18T08:45:55.961Z,25.73
2016-11-18T08:46:36.658Z,25.82
2016-11-18T08:47:17.388Z,25.75
2016-11-18T08:47:58.066Z,25.69
2016-11-18T08:48:38.735Z,25.7
2016-11-18T08:49:19.470Z,25.64
2016-11-18T08:50:00.201Z,25.62
2016-11-18T08:50:40.845Z,25.62
2016-11-18T08:51:21.490Z,25.64
2016-11-18T08:52:02.191Z,25.72
2016-11-18T08:52:42.895Z,25.67